sensor_id;sensor_type;location;lat;lon;timestamp;P1;durP1;ratioP1;P2;durP2;ratioP2
68449;SDS011;55434;39.570;2.652;2022-12-18T00:00:41;11.80;;;3.30;;
68449;SDS011;55434;39.570;2.652;2022-12-18T00:03:08;7.23;;;2.83;;
68449;SDS011;55434;39.570;2.652;2022-12-18T00:05:34;8.68;;;3.05;;
68449;SDS011;55434;39.570;2.652;2022-12-18T00:08:00;11.10;;;2.90;;
68449;SDS011;55434;39.570;2.652;2022-12-18T00:10:27;12.15;;;3.00;;
68449;SDS011;55434;39.570;2.652;2022-12-18T00:12:53;9.27;;;2.60;;
68449;SDS011;55434;39.570;2.652;2022-12-18T00:15:19;8.95;;;3.17;;
68449;SDS011;55434;39.570;2.652;2022-12-18T00:17:45;12.90;;;2.88;;
68449;SDS011;55434;39.570;2.652;2022-12-18T00:20:11;13.13;;;3.23;;
68449;SDS011;55434;39.570;2.652;2022-12-18T00:22:37;9.48;;;2.53;;
68449;SDS011;55434;39.570;2.652;2022-12-18T00:25:03;10.27;;;2.63;;
68449;SDS011;55434;39.570;2.652;2022-12-18T00:27:28;7.63;;;2.47;;
68449;SDS011;55434;39.570;2.652;2022-12-18T00:29:54;8.13;;;2.30;;
68449;SDS011;55434;39.570;2.652;2022-12-18T00:32:20;7.75;;;2.30;;
68449;SDS011;55434;39.570;2.652;2022-12-18T00:34:45;9.63;;;2.67;;
68449;SDS011;55434;39.570;2.652;2022-12-18T00:37:11;9.00;;;2.30;;
68449;SDS011;55434;39.570;2.652;2022-12-18T00:39:37;9.37;;;2.40;;
68449;SDS011;55434;39.570;2.652;2022-12-18T00:42:02;9.77;;;2.73;;
68449;SDS011;55434;39.570;2.652;2022-12-18T00:44:46;13.20;;;2.70;;
68449;SDS011;55434;39.570;2.652;2022-12-18T00:47:12;8.85;;;2.42;;
68449;SDS011;55434;39.570;2.652;2022-12-18T00:49:38;7.30;;;1.93;;
68449;SDS011;55434;39.570;2.652;2022-12-18T00:52:03;9.95;;;2.88;;
68449;SDS011;55434;39.570;2.652;2022-12-18T00:54:29;10.37;;;2.73;;
68449;SDS011;55434;39.570;2.652;2022-12-18T00:56:55;11.45;;;3.00;;
68449;SDS011;55434;39.570;2.652;2022-12-18T00:59:20;8.77;;;2.53;;
68449;SDS011;55434;39.570;2.652;2022-12-18T01:01:46;9.48;;;2.92;;
68449;SDS011;55434;39.570;2.652;2022-12-18T01:04:14;9.55;;;2.40;;
68449;SDS011;55434;39.570;2.652;2022-12-18T01:06:39;10.27;;;2.80;;
68449;SDS011;55434;39.570;2.652;2022-12-18T01:09:05;10.45;;;2.90;;
68449;SDS011;55434;39.570;2.652;2022-12-18T01:11:31;10.43;;;2.80;;
68449;SDS011;55434;39.570;2.652;2022-12-18T01:13:57;10.02;;;2.90;;
68449;SDS011;55434;39.570;2.652;2022-12-18T01:16:22;9.37;;;3.47;;
68449;SDS011;55434;39.570;2.652;2022-12-18T01:18:53;9.05;;;2.60;;
68449;SDS011;55434;39.570;2.652;2022-12-18T01:21:19;8.63;;;2.78;;
68449;SDS011;55434;39.570;2.652;2022-12-18T01:23:46;12.05;;;3.38;;
68449;SDS011;55434;39.570;2.652;2022-12-18T01:26:15;8.80;;;3.17;;
68449;SDS011;55434;39.570;2.652;2022-12-18T01:28:41;9.70;;;3.38;;
68449;SDS011;55434;39.570;2.652;2022-12-18T01:31:12;11.13;;;3.25;;
68449;SDS011;55434;39.570;2.652;2022-12-18T01:33:43;10.68;;;3.22;;
68449;SDS011;55434;39.570;2.652;2022-12-18T01:36:14;9.23;;;3.23;;
68449;SDS011;55434;39.570;2.652;2022-12-18T01:38:40;11.30;;;3.28;;
68449;SDS011;55434;39.570;2.652;2022-12-18T01:41:06;10.50;;;3.10;;
68449;SDS011;55434;39.570;2.652;2022-12-18T01:43:43;8.53;;;3.17;;
68449;SDS011;55434;39.570;2.652;2022-12-18T01:46:18;8.65;;;2.50;;
68449;SDS011;55434;39.570;2.652;2022-12-18T01:48:47;8.88;;;2.72;;
68449;SDS011;55434;39.570;2.652;2022-12-18T01:51:16;7.40;;;2.33;;
68449;SDS011;55434;39.570;2.652;2022-12-18T01:53:42;10.40;;;2.67;;
68449;SDS011;55434;39.570;2.652;2022-12-18T01:56:11;8.53;;;2.57;;
68449;SDS011;55434;39.570;2.652;2022-12-18T01:58:43;8.45;;;2.10;;
68449;SDS011;55434;39.570;2.652;2022-12-18T02:01:14;8.23;;;2.45;;
68449;SDS011;55434;39.570;2.652;2022-12-18T02:03:41;7.03;;;2.10;;
68449;SDS011;55434;39.570;2.652;2022-12-18T02:06:15;8.77;;;2.40;;
68449;SDS011;55434;39.570;2.652;2022-12-18T02:22:06;7.35;;;1.70;;
68449;SDS011;55434;39.570;2.652;2022-12-18T02:27:53;7.47;;;2.15;;
68449;SDS011;55434;39.570;2.652;2022-12-18T02:30:24;9.13;;;2.47;;
68449;SDS011;55434;39.570;2.652;2022-12-18T02:32:53;11.05;;;2.10;;
68449;SDS011;55434;39.570;2.652;2022-12-18T02:35:24;8.15;;;1.92;;
68449;SDS011;55434;39.570;2.652;2022-12-18T02:37:52;7.00;;;2.05;;
68449;SDS011;55434;39.570;2.652;2022-12-18T02:40:19;9.23;;;1.88;;
68449;SDS011;55434;39.570;2.652;2022-12-18T02:42:48;8.07;;;2.27;;
68449;SDS011;55434;39.570;2.652;2022-12-18T02:45:14;8.88;;;1.88;;
68449;SDS011;55434;39.570;2.652;2022-12-18T02:47:40;6.32;;;1.55;;
68449;SDS011;55434;39.570;2.652;2022-12-18T02:55:45;7.32;;;1.70;;
68449;SDS011;55434;39.570;2.652;2022-12-18T03:01:19;8.13;;;1.88;;
68449;SDS011;55434;39.570;2.652;2022-12-18T03:03:57;6.70;;;1.50;;
68449;SDS011;55434;39.570;2.652;2022-12-18T03:09:10;6.38;;;1.55;;
68449;SDS011;55434;39.570;2.652;2022-12-18T03:11:47;8.85;;;1.58;;
68449;SDS011;55434;39.570;2.652;2022-12-18T03:14:37;6.40;;;1.50;;
68449;SDS011;55434;39.570;2.652;2022-12-18T03:17:05;7.47;;;2.03;;
68449;SDS011;55434;39.570;2.652;2022-12-18T03:19:37;6.95;;;1.63;;
68449;SDS011;55434;39.570;2.652;2022-12-18T03:22:04;8.60;;;1.92;;
68449;SDS011;55434;39.570;2.652;2022-12-18T03:24:32;7.32;;;2.00;;
68449;SDS011;55434;39.570;2.652;2022-12-18T03:27:00;7.45;;;1.80;;
68449;SDS011;55434;39.570;2.652;2022-12-18T03:29:30;9.70;;;1.87;;
68449;SDS011;55434;39.570;2.652;2022-12-18T03:32:10;9.00;;;1.90;;
68449;SDS011;55434;39.570;2.652;2022-12-18T03:34:40;7.03;;;1.80;;
68449;SDS011;55434;39.570;2.652;2022-12-18T03:37:08;7.63;;;1.52;;
68449;SDS011;55434;39.570;2.652;2022-12-18T03:39:34;7.57;;;1.80;;
68449;SDS011;55434;39.570;2.652;2022-12-18T03:47:53;5.55;;;1.30;;
68449;SDS011;55434;39.570;2.652;2022-12-18T03:56:07;6.70;;;1.27;;
68449;SDS011;55434;39.570;2.652;2022-12-18T03:58:34;5.15;;;0.90;;
68449;SDS011;55434;39.570;2.652;2022-12-18T04:01:03;7.50;;;1.30;;
68449;SDS011;55434;39.570;2.652;2022-12-18T04:03:31;4.95;;;1.10;;
68449;SDS011;55434;39.570;2.652;2022-12-18T04:05:59;5.68;;;1.20;;
68449;SDS011;55434;39.570;2.652;2022-12-18T04:08:26;3.77;;;0.97;;
68449;SDS011;55434;39.570;2.652;2022-12-18T04:10:52;7.15;;;1.58;;
68449;SDS011;55434;39.570;2.652;2022-12-18T04:13:37;8.60;;;1.48;;
68449;SDS011;55434;39.570;2.652;2022-12-18T04:16:04;10.75;;;1.80;;
68449;SDS011;55434;39.570;2.652;2022-12-18T04:18:30;6.97;;;1.45;;
68449;SDS011;55434;39.570;2.652;2022-12-18T04:20:55;6.20;;;1.20;;
68449;SDS011;55434;39.570;2.652;2022-12-18T04:23:21;5.00;;;1.17;;
68449;SDS011;55434;39.570;2.652;2022-12-18T04:25:47;6.35;;;1.15;;
68449;SDS011;55434;39.570;2.652;2022-12-18T04:28:13;6.43;;;1.30;;
68449;SDS011;55434;39.570;2.652;2022-12-18T04:30:38;5.93;;;1.10;;
68449;SDS011;55434;39.570;2.652;2022-12-18T04:33:08;3.97;;;0.77;;
68449;SDS011;55434;39.570;2.652;2022-12-18T04:35:37;6.97;;;1.10;;
68449;SDS011;55434;39.570;2.652;2022-12-18T04:38:03;5.78;;;0.98;;
68449;SDS011;55434;39.570;2.652;2022-12-18T04:40:31;5.90;;;1.15;;
68449;SDS011;55434;39.570;2.652;2022-12-18T04:43:00;4.72;;;1.02;;
68449;SDS011;55434;39.570;2.652;2022-12-18T04:45:26;8.07;;;1.00;;
68449;SDS011;55434;39.570;2.652;2022-12-18T04:47:51;5.70;;;1.00;;
68449;SDS011;55434;39.570;2.652;2022-12-18T04:50:17;5.73;;;0.67;;
68449;SDS011;55434;39.570;2.652;2022-12-18T04:52:43;4.07;;;0.70;;
68449;SDS011;55434;39.570;2.652;2022-12-18T04:55:08;6.07;;;1.00;;
68449;SDS011;55434;39.570;2.652;2022-12-18T04:57:34;5.07;;;0.70;;
68449;SDS011;55434;39.570;2.652;2022-12-18T04:59:59;4.47;;;1.00;;
68449;SDS011;55434;39.570;2.652;2022-12-18T05:02:25;6.10;;;1.07;;
68449;SDS011;55434;39.570;2.652;2022-12-18T05:04:51;7.38;;;0.95;;
68449;SDS011;55434;39.570;2.652;2022-12-18T05:07:16;4.83;;;1.00;;
68449;SDS011;55434;39.570;2.652;2022-12-18T05:09:42;5.43;;;0.90;;
68449;SDS011;55434;39.570;2.652;2022-12-18T05:12:08;7.00;;;1.13;;
68449;SDS011;55434;39.570;2.652;2022-12-18T05:14:33;6.40;;;0.70;;
68449;SDS011;55434;39.570;2.652;2022-12-18T05:16:59;5.78;;;0.82;;
68449;SDS011;55434;39.570;2.652;2022-12-18T05:19:24;3.97;;;0.73;;
68449;SDS011;55434;39.570;2.652;2022-12-18T05:21:50;6.53;;;1.00;;
68449;SDS011;55434;39.570;2.652;2022-12-18T05:24:15;5.97;;;0.90;;
68449;SDS011;55434;39.570;2.652;2022-12-18T05:26:41;5.97;;;1.00;;
68449;SDS011;55434;39.570;2.652;2022-12-18T05:29:07;7.65;;;1.17;;
68449;SDS011;55434;39.570;2.652;2022-12-18T05:31:32;5.53;;;1.23;;
68449;SDS011;55434;39.570;2.652;2022-12-18T05:33:58;7.18;;;1.30;;
68449;SDS011;55434;39.570;2.652;2022-12-18T05:36:24;4.90;;;0.90;;
68449;SDS011;55434;39.570;2.652;2022-12-18T05:38:49;5.30;;;0.90;;
68449;SDS011;55434;39.570;2.652;2022-12-18T05:41:15;5.60;;;0.95;;
68449;SDS011;55434;39.570;2.652;2022-12-18T05:43:40;8.20;;;1.13;;
68449;SDS011;55434;39.570;2.652;2022-12-18T05:46:07;6.35;;;1.00;;
68449;SDS011;55434;39.570;2.652;2022-12-18T05:48:36;5.93;;;0.88;;
68449;SDS011;55434;39.570;2.652;2022-12-18T05:51:03;8.77;;;0.90;;
68449;SDS011;55434;39.570;2.652;2022-12-18T05:53:31;5.40;;;1.02;;
68449;SDS011;55434;39.570;2.652;2022-12-18T05:56:17;6.03;;;1.00;;
68449;SDS011;55434;39.570;2.652;2022-12-18T05:58:44;11.05;;;1.60;;
68449;SDS011;55434;39.570;2.652;2022-12-18T06:03:47;6.73;;;1.10;;
68449;SDS011;55434;39.570;2.652;2022-12-18T06:06:13;6.80;;;1.23;;
68449;SDS011;55434;39.570;2.652;2022-12-18T06:08:44;6.32;;;1.13;;
68449;SDS011;55434;39.570;2.652;2022-12-18T06:11:10;6.43;;;1.10;;
68449;SDS011;55434;39.570;2.652;2022-12-18T06:13:36;6.88;;;1.13;;
68449;SDS011;55434;39.570;2.652;2022-12-18T06:16:06;7.53;;;1.38;;
68449;SDS011;55434;39.570;2.652;2022-12-18T06:18:32;6.38;;;1.20;;
68449;SDS011;55434;39.570;2.652;2022-12-18T06:20:58;8.32;;;1.15;;
68449;SDS011;55434;39.570;2.652;2022-12-18T06:23:24;6.07;;;1.13;;
68449;SDS011;55434;39.570;2.652;2022-12-18T06:25:50;6.50;;;1.00;;
68449;SDS011;55434;39.570;2.652;2022-12-18T06:28:16;8.02;;;1.13;;
68449;SDS011;55434;39.570;2.652;2022-12-18T06:30:45;6.10;;;1.50;;
68449;SDS011;55434;39.570;2.652;2022-12-18T06:33:11;6.63;;;1.30;;
68449;SDS011;55434;39.570;2.652;2022-12-18T06:35:37;5.93;;;1.17;;
68449;SDS011;55434;39.570;2.652;2022-12-18T06:38:03;6.90;;;1.35;;
68449;SDS011;55434;39.570;2.652;2022-12-18T06:40:28;5.27;;;1.10;;
68449;SDS011;55434;39.570;2.652;2022-12-18T06:42:54;6.22;;;1.05;;
68449;SDS011;55434;39.570;2.652;2022-12-18T06:45:20;5.80;;;1.10;;
68449;SDS011;55434;39.570;2.652;2022-12-18T06:47:45;6.25;;;0.90;;
68449;SDS011;55434;39.570;2.652;2022-12-18T06:50:12;5.77;;;1.00;;
68449;SDS011;55434;39.570;2.652;2022-12-18T06:52:38;5.20;;;1.30;;
68449;SDS011;55434;39.570;2.652;2022-12-18T06:55:06;6.78;;;0.88;;
68449;SDS011;55434;39.570;2.652;2022-12-18T06:57:33;6.03;;;1.13;;
68449;SDS011;55434;39.570;2.652;2022-12-18T06:59:59;4.90;;;1.03;;
68449;SDS011;55434;39.570;2.652;2022-12-18T07:02:24;6.00;;;1.07;;
68449;SDS011;55434;39.570;2.652;2022-12-18T07:04:50;7.25;;;1.05;;
68449;SDS011;55434;39.570;2.652;2022-12-18T07:07:15;5.20;;;0.83;;
68449;SDS011;55434;39.570;2.652;2022-12-18T07:09:41;6.13;;;0.90;;
68449;SDS011;55434;39.570;2.652;2022-12-18T07:12:07;5.10;;;0.90;;
68449;SDS011;55434;39.570;2.652;2022-12-18T07:14:33;6.43;;;0.98;;
68449;SDS011;55434;39.570;2.652;2022-12-18T07:16:59;5.18;;;1.10;;
68449;SDS011;55434;39.570;2.652;2022-12-18T07:19:24;7.03;;;1.17;;
68449;SDS011;55434;39.570;2.652;2022-12-18T07:21:50;5.33;;;0.90;;
68449;SDS011;55434;39.570;2.652;2022-12-18T07:24:16;4.63;;;0.87;;
68449;SDS011;55434;39.570;2.652;2022-12-18T07:26:42;5.78;;;0.95;;
68449;SDS011;55434;39.570;2.652;2022-12-18T07:29:07;13.07;;;1.40;;
68449;SDS011;55434;39.570;2.652;2022-12-18T07:31:33;4.85;;;0.88;;
68449;SDS011;55434;39.570;2.652;2022-12-18T07:33:59;5.73;;;1.23;;
68449;SDS011;55434;39.570;2.652;2022-12-18T07:36:24;4.60;;;0.90;;
68449;SDS011;55434;39.570;2.652;2022-12-18T07:38:50;6.17;;;1.00;;
68449;SDS011;55434;39.570;2.652;2022-12-18T07:41:17;6.65;;;1.10;;
68449;SDS011;55434;39.570;2.652;2022-12-18T07:43:44;6.70;;;0.93;;
68449;SDS011;55434;39.570;2.652;2022-12-18T07:46:10;6.07;;;1.15;;
68449;SDS011;55434;39.570;2.652;2022-12-18T07:48:38;6.80;;;1.37;;
68449;SDS011;55434;39.570;2.652;2022-12-18T07:51:05;6.28;;;1.35;;
68449;SDS011;55434;39.570;2.652;2022-12-18T07:53:32;5.88;;;1.13;;
68449;SDS011;55434;39.570;2.652;2022-12-18T07:55:59;7.35;;;1.50;;
68449;SDS011;55434;39.570;2.652;2022-12-18T07:58:27;6.82;;;1.77;;
68449;SDS011;55434;39.570;2.652;2022-12-18T08:00:53;7.50;;;1.40;;
68449;SDS011;55434;39.570;2.652;2022-12-18T08:03:20;8.05;;;1.48;;
68449;SDS011;55434;39.570;2.652;2022-12-18T08:05:46;6.15;;;1.05;;
68449;SDS011;55434;39.570;2.652;2022-12-18T08:08:13;5.85;;;1.20;;
68449;SDS011;55434;39.570;2.652;2022-12-18T08:10:39;8.23;;;1.37;;
68449;SDS011;55434;39.570;2.652;2022-12-18T08:13:04;7.87;;;1.57;;
68449;SDS011;55434;39.570;2.652;2022-12-18T08:15:31;7.20;;;1.47;;
68449;SDS011;55434;39.570;2.652;2022-12-18T08:17:57;6.65;;;1.58;;
68449;SDS011;55434;39.570;2.652;2022-12-18T08:20:22;7.63;;;1.67;;
68449;SDS011;55434;39.570;2.652;2022-12-18T08:22:48;8.85;;;1.90;;
68449;SDS011;55434;39.570;2.652;2022-12-18T08:25:13;10.40;;;1.80;;
68449;SDS011;55434;39.570;2.652;2022-12-18T08:27:39;9.63;;;2.50;;
68449;SDS011;55434;39.570;2.652;2022-12-18T08:30:05;8.33;;;2.33;;
68449;SDS011;55434;39.570;2.652;2022-12-18T08:32:31;7.35;;;2.10;;
68449;SDS011;55434;39.570;2.652;2022-12-18T08:34:58;8.20;;;2.08;;
68449;SDS011;55434;39.570;2.652;2022-12-18T08:37:24;6.90;;;2.10;;
68449;SDS011;55434;39.570;2.652;2022-12-18T08:39:50;6.93;;;2.10;;
68449;SDS011;55434;39.570;2.652;2022-12-18T08:42:16;9.77;;;2.95;;
68449;SDS011;55434;39.570;2.652;2022-12-18T08:45:00;8.80;;;2.22;;
68449;SDS011;55434;39.570;2.652;2022-12-18T08:47:26;9.30;;;2.40;;
68449;SDS011;55434;39.570;2.652;2022-12-18T08:49:52;11.55;;;2.72;;
68449;SDS011;55434;39.570;2.652;2022-12-18T08:52:18;7.55;;;2.03;;
68449;SDS011;55434;39.570;2.652;2022-12-18T08:54:43;7.40;;;2.27;;
68449;SDS011;55434;39.570;2.652;2022-12-18T08:57:09;7.53;;;2.10;;
68449;SDS011;55434;39.570;2.652;2022-12-18T08:59:35;9.98;;;2.38;;
68449;SDS011;55434;39.570;2.652;2022-12-18T09:02:00;8.80;;;2.30;;
68449;SDS011;55434;39.570;2.652;2022-12-18T09:04:28;9.90;;;2.25;;
68449;SDS011;55434;39.570;2.652;2022-12-18T09:06:54;7.82;;;2.10;;
68449;SDS011;55434;39.570;2.652;2022-12-18T09:09:21;9.83;;;2.37;;
68449;SDS011;55434;39.570;2.652;2022-12-18T09:11:46;7.63;;;2.33;;
68449;SDS011;55434;39.570;2.652;2022-12-18T09:14:12;9.83;;;2.10;;
68449;SDS011;55434;39.570;2.652;2022-12-18T09:16:38;9.68;;;1.92;;
68449;SDS011;55434;39.570;2.652;2022-12-18T09:19:04;6.37;;;1.87;;
68449;SDS011;55434;39.570;2.652;2022-12-18T09:21:32;8.73;;;2.40;;
68449;SDS011;55434;39.570;2.652;2022-12-18T09:23:59;7.85;;;1.90;;
68449;SDS011;55434;39.570;2.652;2022-12-18T09:26:25;9.67;;;2.10;;
68449;SDS011;55434;39.570;2.652;2022-12-18T09:28:52;7.55;;;1.92;;
68449;SDS011;55434;39.570;2.652;2022-12-18T09:31:19;7.68;;;2.10;;
68449;SDS011;55434;39.570;2.652;2022-12-18T09:33:46;7.07;;;2.10;;
68449;SDS011;55434;39.570;2.652;2022-12-18T09:36:12;9.47;;;3.23;;
68449;SDS011;55434;39.570;2.652;2022-12-18T09:38:40;9.18;;;2.80;;
68449;SDS011;55434;39.570;2.652;2022-12-18T09:43:51;10.63;;;3.30;;
68449;SDS011;55434;39.570;2.652;2022-12-18T09:46:26;7.75;;;2.15;;
68449;SDS011;55434;39.570;2.652;2022-12-18T09:49:00;8.03;;;2.03;;
68449;SDS011;55434;39.570;2.652;2022-12-18T09:51:30;9.57;;;2.45;;
68449;SDS011;55434;39.570;2.652;2022-12-18T09:54:03;8.40;;;1.80;;
68449;SDS011;55434;39.570;2.652;2022-12-18T09:56:35;9.75;;;2.72;;
68449;SDS011;55434;39.570;2.652;2022-12-18T09:59:03;10.32;;;2.83;;
68449;SDS011;55434;39.570;2.652;2022-12-18T10:01:29;7.60;;;2.00;;
68449;SDS011;55434;39.570;2.652;2022-12-18T10:03:56;7.13;;;2.22;;
68449;SDS011;55434;39.570;2.652;2022-12-18T10:09:05;7.70;;;1.90;;
68449;SDS011;55434;39.570;2.652;2022-12-18T10:19:46;10.48;;;2.60;;
68449;SDS011;55434;39.570;2.652;2022-12-18T10:27:45;9.23;;;2.30;;
68449;SDS011;55434;39.570;2.652;2022-12-18T10:30:12;8.30;;;2.85;;
68449;SDS011;55434;39.570;2.652;2022-12-18T10:32:41;11.00;;;2.75;;
68449;SDS011;55434;39.570;2.652;2022-12-18T10:35:08;9.02;;;2.75;;
68449;SDS011;55434;39.570;2.652;2022-12-18T10:37:58;7.25;;;2.03;;
68449;SDS011;55434;39.570;2.652;2022-12-18T10:40:32;6.07;;;2.15;;
68449;SDS011;55434;39.570;2.652;2022-12-18T10:43:12;6.78;;;2.00;;
68449;SDS011;55434;39.570;2.652;2022-12-18T10:45:40;7.05;;;2.20;;
68449;SDS011;55434;39.570;2.652;2022-12-18T10:48:19;8.27;;;2.47;;
68449;SDS011;55434;39.570;2.652;2022-12-18T10:50:47;11.73;;;3.28;;
68449;SDS011;55434;39.570;2.652;2022-12-18T10:53:19;6.68;;;2.70;;
68449;SDS011;55434;39.570;2.652;2022-12-18T10:55:53;6.70;;;2.60;;
68449;SDS011;55434;39.570;2.652;2022-12-18T10:58:24;6.88;;;2.72;;
68449;SDS011;55434;39.570;2.652;2022-12-18T11:01:11;7.00;;;2.50;;
68449;SDS011;55434;39.570;2.652;2022-12-18T11:03:45;7.18;;;2.65;;
68449;SDS011;55434;39.570;2.652;2022-12-18T11:06:15;6.95;;;2.40;;
68449;SDS011;55434;39.570;2.652;2022-12-18T11:08:44;5.45;;;1.73;;
68449;SDS011;55434;39.570;2.652;2022-12-18T11:11:23;5.75;;;2.00;;
68449;SDS011;55434;39.570;2.652;2022-12-18T11:13:57;7.72;;;1.70;;
68449;SDS011;55434;39.570;2.652;2022-12-18T11:16:36;6.53;;;2.03;;
68449;SDS011;55434;39.570;2.652;2022-12-18T11:19:53;5.78;;;1.50;;
68449;SDS011;55434;39.570;2.652;2022-12-18T11:21:53;6.88;;;1.88;;
68449;SDS011;55434;39.570;2.652;2022-12-18T11:24:29;7.95;;;1.80;;
68449;SDS011;55434;39.570;2.652;2022-12-18T11:27:05;5.70;;;1.60;;
68449;SDS011;55434;39.570;2.652;2022-12-18T11:29:41;6.07;;;1.90;;
68449;SDS011;55434;39.570;2.652;2022-12-18T11:35:00;6.95;;;1.90;;
68449;SDS011;55434;39.570;2.652;2022-12-18T11:37:27;6.63;;;1.97;;
68449;SDS011;55434;39.570;2.652;2022-12-18T11:40:02;6.80;;;2.00;;
68449;SDS011;55434;39.570;2.652;2022-12-18T11:50:14;7.37;;;1.70;;
68449;SDS011;55434;39.570;2.652;2022-12-18T11:52:43;5.90;;;1.75;;
68449;SDS011;55434;39.570;2.652;2022-12-18T11:55:13;6.97;;;1.90;;
68449;SDS011;55434;39.570;2.652;2022-12-18T12:00:19;6.87;;;1.93;;
68449;SDS011;55434;39.570;2.652;2022-12-18T12:06:03;8.25;;;2.30;;
68449;SDS011;55434;39.570;2.652;2022-12-18T12:08:46;7.03;;;1.90;;
68449;SDS011;55434;39.570;2.652;2022-12-18T12:19:53;8.00;;;2.60;;
68449;SDS011;55434;39.570;2.652;2022-12-18T12:24:59;9.70;;;2.53;;
68449;SDS011;55434;39.570;2.652;2022-12-18T12:27:49;11.10;;;2.35;;
68449;SDS011;55434;39.570;2.652;2022-12-18T12:36:17;8.70;;;2.23;;
68449;SDS011;55434;39.570;2.652;2022-12-18T12:39:13;5.90;;;1.50;;
68449;SDS011;55434;39.570;2.652;2022-12-18T12:41:41;6.28;;;1.60;;
68449;SDS011;55434;39.570;2.652;2022-12-18T12:44:29;4.85;;;1.40;;
68449;SDS011;55434;39.570;2.652;2022-12-18T12:47:04;5.45;;;1.45;;
68449;SDS011;55434;39.570;2.652;2022-12-18T12:49:37;5.20;;;2.10;;
68449;SDS011;55434;39.570;2.652;2022-12-18T12:52:05;5.85;;;1.63;;
68449;SDS011;55434;39.570;2.652;2022-12-18T12:54:36;6.45;;;1.42;;
68449;SDS011;55434;39.570;2.652;2022-12-18T12:57:13;6.28;;;1.63;;
68449;SDS011;55434;39.570;2.652;2022-12-18T13:00:10;8.13;;;1.55;;
68449;SDS011;55434;39.570;2.652;2022-12-18T13:05:28;6.10;;;1.92;;
68449;SDS011;55434;39.570;2.652;2022-12-18T13:08:10;5.90;;;1.90;;
68449;SDS011;55434;39.570;2.652;2022-12-18T13:10:40;6.60;;;1.83;;
68449;SDS011;55434;39.570;2.652;2022-12-18T13:15:45;8.07;;;2.60;;
68449;SDS011;55434;39.570;2.652;2022-12-18T13:18:22;8.80;;;1.92;;
68449;SDS011;55434;39.570;2.652;2022-12-18T13:20:50;9.32;;;1.80;;
68449;SDS011;55434;39.570;2.652;2022-12-18T13:23:20;6.03;;;1.40;;
68449;SDS011;55434;39.570;2.652;2022-12-18T13:25:59;7.15;;;1.60;;
68449;SDS011;55434;39.570;2.652;2022-12-18T13:36:45;6.82;;;1.70;;
68449;SDS011;55434;39.570;2.652;2022-12-18T13:41:46;9.13;;;2.20;;
68449;SDS011;55434;39.570;2.652;2022-12-18T13:44:40;7.50;;;1.95;;
68449;SDS011;55434;39.570;2.652;2022-12-18T13:49:50;7.15;;;1.73;;
68449;SDS011;55434;39.570;2.652;2022-12-18T13:52:26;7.13;;;1.97;;
68449;SDS011;55434;39.570;2.652;2022-12-18T13:54:54;6.38;;;1.60;;
68449;SDS011;55434;39.570;2.652;2022-12-18T13:57:29;6.40;;;1.85;;
68449;SDS011;55434;39.570;2.652;2022-12-18T14:00:19;10.15;;;1.98;;
68449;SDS011;55434;39.570;2.652;2022-12-18T14:02:48;7.55;;;2.08;;
68449;SDS011;55434;39.570;2.652;2022-12-18T14:05:22;6.37;;;2.07;;
68449;SDS011;55434;39.570;2.652;2022-12-18T14:07:49;6.30;;;1.33;;
68449;SDS011;55434;39.570;2.652;2022-12-18T14:10:15;7.07;;;2.15;;
68449;SDS011;55434;39.570;2.652;2022-12-18T14:12:44;8.07;;;2.05;;
68449;SDS011;55434;39.570;2.652;2022-12-18T14:15:27;7.28;;;1.65;;
68449;SDS011;55434;39.570;2.652;2022-12-18T14:17:57;8.63;;;1.70;;
68449;SDS011;55434;39.570;2.652;2022-12-18T14:20:26;7.13;;;1.95;;
68449;SDS011;55434;39.570;2.652;2022-12-18T14:22:56;6.88;;;1.70;;
68449;SDS011;55434;39.570;2.652;2022-12-18T14:27:51;9.40;;;2.20;;
68449;SDS011;55434;39.570;2.652;2022-12-18T14:30:29;7.65;;;1.58;;
68449;SDS011;55434;39.570;2.652;2022-12-18T14:33:00;6.70;;;1.50;;
68449;SDS011;55434;39.570;2.652;2022-12-18T14:35:26;7.78;;;1.67;;
68449;SDS011;55434;39.570;2.652;2022-12-18T14:37:52;7.37;;;1.90;;
68449;SDS011;55434;39.570;2.652;2022-12-18T14:40:18;6.82;;;1.48;;
68449;SDS011;55434;39.570;2.652;2022-12-18T14:42:44;9.53;;;1.77;;
68449;SDS011;55434;39.570;2.652;2022-12-18T14:48:05;10.10;;;2.35;;
68449;SDS011;55434;39.570;2.652;2022-12-18T14:50:56;7.60;;;1.60;;
68449;SDS011;55434;39.570;2.652;2022-12-18T14:53:25;6.78;;;1.50;;
68449;SDS011;55434;39.570;2.652;2022-12-18T14:56:20;8.95;;;2.22;;
68449;SDS011;55434;39.570;2.652;2022-12-18T14:59:04;10.40;;;2.05;;
68449;SDS011;55434;39.570;2.652;2022-12-18T15:01:38;7.55;;;1.65;;
68449;SDS011;55434;39.570;2.652;2022-12-18T15:04:36;7.22;;;1.70;;
68449;SDS011;55434;39.570;2.652;2022-12-18T15:07:19;7.82;;;1.75;;
68449;SDS011;55434;39.570;2.652;2022-12-18T15:12:47;7.95;;;1.77;;
68449;SDS011;55434;39.570;2.652;2022-12-18T15:20:41;6.38;;;2.30;;
68449;SDS011;55434;39.570;2.652;2022-12-18T15:23:17;8.93;;;2.15;;
68449;SDS011;55434;39.570;2.652;2022-12-18T15:25:47;7.25;;;1.95;;
68449;SDS011;55434;39.570;2.652;2022-12-18T15:28:21;8.32;;;1.77;;
68449;SDS011;55434;39.570;2.652;2022-12-18T15:30:58;7.15;;;1.80;;
68449;SDS011;55434;39.570;2.652;2022-12-18T15:33:35;7.40;;;2.60;;
68449;SDS011;55434;39.570;2.652;2022-12-18T15:36:09;5.75;;;1.83;;
68449;SDS011;55434;39.570;2.652;2022-12-18T15:38:36;9.00;;;2.05;;
68449;SDS011;55434;39.570;2.652;2022-12-18T15:41:01;7.50;;;2.10;;
68449;SDS011;55434;39.570;2.652;2022-12-18T15:43:28;7.85;;;2.08;;
68449;SDS011;55434;39.570;2.652;2022-12-18T15:46:03;8.25;;;2.05;;
68449;SDS011;55434;39.570;2.652;2022-12-18T15:48:32;10.13;;;2.00;;
68449;SDS011;55434;39.570;2.652;2022-12-18T15:50:59;7.05;;;1.50;;
68449;SDS011;55434;39.570;2.652;2022-12-18T15:53:25;6.07;;;1.63;;
68449;SDS011;55434;39.570;2.652;2022-12-18T15:55:55;9.50;;;1.70;;
68449;SDS011;55434;39.570;2.652;2022-12-18T15:58:47;6.97;;;1.65;;
68449;SDS011;55434;39.570;2.652;2022-12-18T16:01:13;8.57;;;2.05;;
68449;SDS011;55434;39.570;2.652;2022-12-18T16:03:39;7.40;;;1.40;;
68449;SDS011;55434;39.570;2.652;2022-12-18T16:06:04;7.95;;;2.13;;
68449;SDS011;55434;39.570;2.652;2022-12-18T16:08:31;6.43;;;2.00;;
68449;SDS011;55434;39.570;2.652;2022-12-18T16:10:57;7.22;;;2.40;;
68449;SDS011;55434;39.570;2.652;2022-12-18T16:13:23;9.52;;;2.85;;
68449;SDS011;55434;39.570;2.652;2022-12-18T16:15:49;7.87;;;2.17;;
68449;SDS011;55434;39.570;2.652;2022-12-18T16:18:14;7.90;;;2.30;;
68449;SDS011;55434;39.570;2.652;2022-12-18T16:20:40;7.30;;;2.22;;
68449;SDS011;55434;39.570;2.652;2022-12-18T16:23:06;6.70;;;2.45;;
68449;SDS011;55434;39.570;2.652;2022-12-18T16:25:32;8.75;;;2.55;;
68449;SDS011;55434;39.570;2.652;2022-12-18T16:27:58;7.88;;;2.60;;
68449;SDS011;55434;39.570;2.652;2022-12-18T16:30:28;8.53;;;2.47;;
68449;SDS011;55434;39.570;2.652;2022-12-18T16:32:56;9.07;;;2.42;;
68449;SDS011;55434;39.570;2.652;2022-12-18T16:35:22;7.03;;;2.30;;
68449;SDS011;55434;39.570;2.652;2022-12-18T16:37:50;7.70;;;1.90;;
68449;SDS011;55434;39.570;2.652;2022-12-18T16:40:16;6.27;;;1.83;;
68449;SDS011;55434;39.570;2.652;2022-12-18T16:42:43;6.57;;;2.15;;
68449;SDS011;55434;39.570;2.652;2022-12-18T16:45:14;7.47;;;2.08;;
68449;SDS011;55434;39.570;2.652;2022-12-18T16:47:41;7.93;;;2.37;;
68449;SDS011;55434;39.570;2.652;2022-12-18T16:50:08;8.60;;;2.72;;
68449;SDS011;55434;39.570;2.652;2022-12-18T16:52:34;8.40;;;2.53;;
68449;SDS011;55434;39.570;2.652;2022-12-18T16:55:00;8.45;;;2.50;;
68449;SDS011;55434;39.570;2.652;2022-12-18T16:57:26;7.60;;;2.60;;
68449;SDS011;55434;39.570;2.652;2022-12-18T16:59:52;6.68;;;2.25;;
68449;SDS011;55434;39.570;2.652;2022-12-18T17:02:21;10.20;;;2.43;;
68449;SDS011;55434;39.570;2.652;2022-12-18T17:04:48;9.52;;;3.17;;